createdAt,value
2019-05-13T00:00:46.422Z,76.70
2019-05-13T00:03:15.209Z,77.10
2019-05-13T00:05:44.674Z,77.30
2019-05-13T00:08:14.080Z,77.40
2019-05-13T00:10:44.474Z,77.80
2019-05-13T00:13:14.787Z,78.20
2019-05-13T00:15:44.342Z,78.00
2019-05-13T00:18:14.417Z,78.40
2019-05-13T00:20:44.375Z,77.30
2019-05-13T00:23:14.321Z,77.10
2019-05-13T00:25:44.467Z,77.80
2019-05-13T00:28:14.542Z,78.00
2019-05-13T00:30:44.509Z,77.50
2019-05-13T00:33:14.269Z,76.90
2019-05-13T00:35:44.316Z,76.90
2019-05-13T00:38:14.136Z,77.50
2019-05-13T00:40:44.385Z,78.20
2019-05-13T00:43:14.252Z,78.90
2019-05-13T00:45:44.586Z,79.20
2019-05-13T00:48:14.378Z,80.80
2019-05-13T00:50:44.295Z,79.50
2019-05-13T00:53:13.523Z,79.10
2019-05-13T00:55:44.556Z,78.20
2019-05-13T00:58:13.975Z,78.60
2019-05-13T01:00:44.466Z,79.50
2019-05-13T01:03:14.292Z,79.50
2019-05-13T01:05:44.419Z,78.80
2019-05-13T01:08:14.515Z,79.90
2019-05-13T01:10:45.129Z,80.80
2019-05-13T01:13:14.148Z,80.80
2019-05-13T01:15:44.299Z,81.30
2019-05-13T01:18:14.249Z,82.10
2019-05-13T01:20:43.845Z,82.50
2019-05-13T01:23:14.232Z,81.70
2019-05-13T01:25:44.453Z,81.80
2019-05-13T01:28:13.748Z,81.70
2019-05-13T01:31:04.023Z,82.00
2019-05-13T01:33:32.307Z,82.50
2019-05-13T01:36:01.094Z,82.20
2019-05-13T01:38:29.984Z,83.00
2019-05-13T01:40:58.772Z,83.00
2019-05-13T01:43:27.561Z,83.60
2019-05-13T01:45:56.349Z,84.10
2019-05-13T01:48:25.136Z,84.70
2019-05-13T01:50:54.028Z,84.80
2019-05-13T01:53:24.445Z,84.90
2019-05-13T01:55:53.447Z,85.60
2019-05-13T01:58:23.575Z,85.50
2019-05-13T02:00:54.943Z,85.20
2019-05-13T02:03:24.597Z,84.60
2019-05-13T02:05:54.430Z,85.20
2019-05-13T02:08:24.485Z,85.80
2019-05-13T02:10:55.099Z,86.00
2019-05-13T02:13:25.160Z,86.30
2019-05-13T02:15:55.435Z,86.40
2019-05-13T02:18:24.940Z,86.00
2019-05-13T02:20:55.401Z,85.10
2019-05-13T02:23:24.841Z,84.10
2019-05-13T02:25:54.373Z,83.00
2019-05-13T02:28:24.673Z,82.90
2019-05-13T02:30:55.924Z,82.30
2019-05-13T02:33:24.694Z,82.10
2019-05-13T02:35:53.880Z,83.10
2019-05-13T02:38:29.506Z,83.60
2019-05-13T02:40:53.899Z,84.60
2019-05-13T02:43:23.950Z,85.30
2019-05-13T02:45:54.117Z,85.40
2019-05-13T02:48:24.042Z,85.40
2019-05-13T02:50:53.950Z,85.40
2019-05-13T02:53:24.052Z,84.40
2019-05-13T02:55:53.871Z,84.30
2019-05-13T02:58:24.996Z,85.20
2019-05-13T03:00:54.170Z,85.70
2019-05-13T03:03:23.780Z,83.50
2019-05-13T03:05:53.805Z,83.50
2019-05-13T03:08:46.455Z,84.10
2019-05-13T03:10:54.239Z,85.40
2019-05-13T03:13:24.075Z,84.90
2019-05-13T03:15:57.986Z,85.20
2019-05-13T03:18:46.090Z,84.90
2019-05-13T03:21:14.933Z,86.00
2019-05-13T03:23:44.446Z,86.30
2019-05-13T03:26:13.605Z,87.20
2019-05-13T03:28:43.690Z,87.60
2019-05-13T03:31:17.004Z,87.60
2019-05-13T03:33:46.584Z,88.10
2019-05-13T03:36:16.839Z,87.90
2019-05-13T03:38:59.549Z,87.80
2019-05-13T03:41:17.011Z,88.10
2019-05-13T03:43:46.365Z,88.20
2019-05-13T03:46:15.285Z,88.70
2019-05-13T03:48:44.989Z,88.20
2019-05-13T03:51:14.080Z,88.60
2019-05-13T03:53:43.901Z,88.70
2019-05-13T03:56:13.234Z,88.90
2019-05-13T03:58:43.631Z,89.30
2019-05-13T04:01:13.326Z,89.30
2019-05-13T04:03:43.877Z,89.50
2019-05-13T04:06:13.962Z,89.30
2019-05-13T04:08:43.850Z,89.30
2019-05-13T04:11:13.365Z,89.30
2019-05-13T04:13:43.184Z,89.10
2019-05-13T04:16:13.232Z,88.80
2019-05-13T04:18:43.035Z,88.40
2019-05-13T04:21:13.319Z,88.60
2019-05-13T04:23:43.021Z,89.10
2019-05-13T04:26:14.776Z,89.70
2019-05-13T04:28:43.585Z,90.00
2019-05-13T04:31:14.498Z,90.00
2019-05-13T04:33:43.880Z,90.30
2019-05-13T04:36:32.110Z,90.50
2019-05-13T04:39:03.238Z,90.50
2019-05-13T04:41:33.260Z,90.50
2019-05-13T04:44:02.749Z,90.30
2019-05-13T04:46:32.912Z,90.30
2019-05-13T04:49:02.395Z,90.30
2019-05-13T04:51:32.842Z,90.40
2019-05-13T04:54:02.975Z,90.30
2019-05-13T04:56:32.971Z,90.00
2019-05-13T04:59:03.047Z,89.60
2019-05-13T05:01:57.828Z,90.10
2019-05-13T05:04:30.663Z,90.20
2019-05-13T05:07:05.278Z,89.30
2019-05-13T05:09:56.077Z,88.80
2019-05-13T05:12:19.626Z,89.10
2019-05-13T05:15:04.004Z,88.80
2019-05-13T05:17:42.769Z,87.80
2019-05-13T05:20:36.086Z,87.60
2019-05-13T05:23:16.547Z,87.70
2019-05-13T05:26:15.176Z,88.40
2019-05-13T05:28:58.370Z,88.60
2019-05-13T05:31:53.055Z,88.30
2019-05-13T05:34:58.093Z,88.10
2019-05-13T05:37:49.625Z,87.60
2019-05-13T05:40:31.099Z,87.50
2019-05-13T05:42:52.308Z,87.10
2019-05-13T05:45:22.041Z,85.50
2019-05-13T05:47:53.840Z,85.20
2019-05-13T05:50:23.087Z,84.80
2019-05-13T05:53:28.749Z,84.10
2019-05-13T05:56:23.448Z,83.50
2019-05-13T05:59:18.595Z,84.00
2019-05-13T06:05:35.210Z,83.30
2019-05-13T06:08:41.113Z,83.50
2019-05-13T06:14:48.579Z,82.80
2019-05-13T06:18:05.658Z,82.70
2019-05-13T06:24:11.862Z,83.10
2019-05-13T06:27:23.798Z,82.90
2019-05-13T06:33:34.552Z,81.70
2019-05-13T06:39:34.457Z,79.90
2019-05-13T06:42:35.966Z,79.10
2019-05-13T06:45:44.639Z,78.80
2019-05-13T06:51:52.707Z,79.50
2019-05-13T06:58:02.111Z,78.10
2019-05-13T07:00:45.975Z,76.70
2019-05-13T07:03:51.938Z,76.70
2019-05-13T07:07:07.659Z,76.50
2019-05-13T07:12:48.654Z,75.70
2019-05-13T07:15:45.898Z,75.20
2019-05-13T07:18:34.335Z,75.10
2019-05-13T07:24:41.468Z,72.40
2019-05-13T07:27:43.885Z,72.20
2019-05-13T07:30:47.398Z,72.10
2019-05-13T07:33:23.466Z,71.60
2019-05-13T07:36:51.237Z,71.00
2019-05-13T07:39:52.926Z,70.70
2019-05-13T07:42:13.008Z,70.20
2019-05-13T07:48:52.013Z,70.30
2019-05-13T07:51:26.762Z,69.70
2019-05-13T07:54:33.062Z,69.00
2019-05-13T07:57:03.036Z,68.20
2019-05-13T08:00:01.867Z,67.70
2019-05-13T08:02:55.306Z,66.40
2019-05-13T08:06:11.202Z,66.20
2019-05-13T08:12:14.794Z,65.20
2019-05-13T08:18:26.397Z,63.30
2019-05-13T08:21:22.758Z,63.40
2019-05-13T08:27:11.759Z,60.40
2019-05-13T08:30:18.551Z,59.30
2019-05-13T08:36:39.466Z,58.90
2019-05-13T08:39:38.076Z,58.30
2019-05-13T08:42:37.315Z,58.30
2019-05-13T08:45:42.100Z,58.20
2019-05-13T08:48:51.801Z,56.30
2019-05-13T08:51:46.478Z,55.40
2019-05-13T08:54:47.868Z,54.50
2019-05-13T08:57:57.616Z,54.30
2019-05-13T09:01:16.712Z,54.30
2019-05-13T09:07:35.697Z,53.30
2019-05-13T09:10:32.407Z,52.40
2019-05-13T09:13:13.979Z,51.60
2019-05-13T09:16:17.012Z,51.70
2019-05-13T09:22:21.320Z,48.00
2019-05-13T09:28:32.357Z,46.70
2019-05-13T09:31:21.861Z,46.70
2019-05-13T09:34:13.185Z,44.70
2019-05-13T09:37:11.785Z,44.70
2019-05-13T09:40:02.426Z,43.10
2019-05-13T09:42:58.249Z,42.70
2019-05-13T09:45:52.169Z,42.00
2019-05-13T09:48:53.335Z,40.00
2019-05-13T09:51:47.459Z,40.70
2019-05-13T09:54:32.526Z,41.20
2019-05-13T09:57:25.346Z,39.90
2019-05-13T10:00:34.049Z,37.10
2019-05-13T10:03:51.974Z,36.70
2019-05-13T10:06:34.398Z,34.90
2019-05-13T10:12:42.115Z,31.10
2019-05-13T10:18:15.861Z,27.50
2019-05-13T10:21:16.832Z,24.20
2019-05-13T10:24:16.575Z,23.10
2019-05-13T10:27:08.306Z,22.70
2019-05-13T10:30:11.306Z,22.10
2019-05-13T10:33:11.870Z,21.10
2019-05-13T10:36:12.025Z,18.90
2019-05-13T10:45:33.241Z,17.90
2019-05-13T10:48:27.568Z,17.10
2019-05-13T10:54:13.266Z,17.50
2019-05-13T10:56:43.130Z,16.60
2019-05-13T10:59:12.575Z,16.80
2019-05-13T11:01:42.937Z,16.30
2019-05-13T11:04:13.565Z,14.30
2019-05-13T11:06:42.624Z,14.80
2019-05-13T11:09:12.982Z,15.50
2019-05-13T11:11:42.236Z,16.30
2019-05-13T11:14:15.284Z,15.80
2019-05-13T11:16:42.645Z,15.30
2019-05-13T11:19:12.103Z,14.70
2019-05-13T11:21:43.424Z,13.80
2019-05-13T11:24:12.712Z,13.90
2019-05-13T11:26:42.007Z,13.60
2019-05-13T11:29:12.096Z,13.60
2019-05-13T11:31:42.898Z,13.30
2019-05-13T11:34:11.801Z,14.00
2019-05-13T11:36:43.059Z,13.80
2019-05-13T11:39:12.932Z,14.20
2019-05-13T11:41:42.799Z,13.60
2019-05-13T11:44:16.071Z,14.10
2019-05-13T11:46:42.908Z,13.20
2019-05-13T11:49:12.562Z,12.20
2019-05-13T11:51:42.682Z,12.50
2019-05-13T11:54:13.826Z,12.10
2019-05-13T11:56:49.386Z,12.70
2019-05-13T11:59:14.074Z,12.90
2019-05-13T12:01:43.418Z,11.80
2019-05-13T12:04:12.510Z,11.80
2019-05-13T12:06:48.599Z,12.20
2019-05-13T12:09:13.234Z,11.60
2019-05-13T12:11:42.467Z,12.20
2019-05-13T12:14:37.354Z,12.00
2019-05-13T12:16:42.325Z,11.10
2019-05-13T12:19:12.021Z,11.20
2019-05-13T12:21:45.409Z,12.10
2019-05-13T12:24:11.664Z,12.30
2019-05-13T12:26:43.412Z,12.50
2019-05-13T12:29:18.381Z,12.10
2019-05-13T12:31:41.466Z,11.80
2019-05-13T12:34:13.061Z,12.40
2019-05-13T12:36:43.223Z,12.10
2019-05-13T12:39:13.982Z,11.10
2019-05-13T12:41:42.809Z,10.90
2019-05-13T12:44:13.039Z,10.30
2019-05-13T12:46:49.406Z,11.20
2019-05-13T12:49:14.177Z,11.60
2019-05-13T12:51:43.992Z,11.50
2019-05-13T12:54:14.000Z,11.20
2019-05-13T12:56:43.281Z,11.60
2019-05-13T12:59:13.332Z,11.20
2019-05-13T13:01:42.498Z,11.10
2019-05-13T13:04:12.235Z,10.90
2019-05-13T13:06:45.131Z,11.30
2019-05-13T13:09:12.664Z,10.80
2019-05-13T13:11:43.611Z,10.80
2019-05-13T13:14:15.669Z,9.60
2019-05-13T13:16:43.280Z,9.60
2019-05-13T13:19:14.628Z,10.30
2019-05-13T13:21:42.736Z,9.90
2019-05-13T13:24:12.417Z,10.40
2019-05-13T13:26:42.753Z,9.80
2019-05-13T13:29:11.951Z,10.60
2019-05-13T13:31:43.275Z,10.40
2019-05-13T13:34:17.332Z,9.80
2019-05-13T13:36:45.841Z,9.50
2019-05-13T13:39:14.881Z,10.70
2019-05-13T13:41:43.876Z,10.00
2019-05-13T13:44:12.975Z,10.60
2019-05-13T13:46:44.684Z,10.40
2019-05-13T13:49:13.187Z,10.40
2019-05-13T13:51:44.552Z,9.80
2019-05-13T13:54:13.828Z,10.80
2019-05-13T13:56:45.792Z,10.40
2019-05-13T13:59:14.281Z,10.70
2019-05-13T14:01:43.402Z,10.20
2019-05-13T14:04:16.269Z,10.00
2019-05-13T14:09:13.147Z,10.20
2019-05-13T14:11:42.111Z,10.20
2019-05-13T14:14:12.449Z,10.20
2019-05-13T14:16:46.137Z,10.40
2019-05-13T14:19:12.803Z,10.60
2019-05-13T14:21:41.751Z,10.90
2019-05-13T14:24:12.158Z,10.40
2019-05-13T14:26:43.362Z,10.00
2019-05-13T14:29:12.324Z,10.40
2019-05-13T14:31:41.556Z,9.70
2019-05-13T14:34:11.473Z,11.00
2019-05-13T14:36:40.542Z,11.10
2019-05-13T14:39:11.850Z,10.70
2019-05-13T14:41:39.786Z,10.50
2019-05-13T14:44:09.387Z,10.20
2019-05-13T14:46:47.123Z,10.40
2019-05-13T14:49:12.155Z,11.00
2019-05-13T14:51:41.539Z,10.00
2019-05-13T14:54:10.690Z,11.10
2019-05-13T14:56:41.827Z,11.50
2019-05-13T14:59:11.656Z,10.20
2019-05-13T15:01:41.287Z,10.30
2019-05-13T15:04:12.295Z,10.30
2019-05-13T15:06:41.743Z,10.60
2019-05-13T15:09:12.570Z,11.10
2019-05-13T15:11:42.017Z,10.50
2019-05-13T15:14:11.607Z,10.50
2019-05-13T15:16:42.397Z,10.40
2019-05-13T15:19:11.969Z,10.70
2019-05-13T15:21:41.363Z,10.40
2019-05-13T15:24:12.363Z,10.90
2019-05-13T15:26:42.237Z,11.50
2019-05-13T15:29:11.718Z,12.20
2019-05-13T15:31:42.179Z,11.00
2019-05-13T15:34:11.186Z,11.20
2019-05-13T15:36:41.991Z,11.60
2019-05-13T15:39:11.990Z,11.50
2019-05-13T15:41:41.797Z,11.90
2019-05-13T15:44:11.479Z,11.80
2019-05-13T15:46:41.773Z,12.10
2019-05-13T15:49:12.371Z,12.30
2019-05-13T15:51:42.182Z,11.60
2019-05-13T15:54:17.500Z,12.40
2019-05-13T15:56:42.757Z,12.10
2019-05-13T15:59:12.554Z,12.30
2019-05-13T16:01:42.404Z,12.80
2019-05-13T16:04:13.483Z,12.50
2019-05-13T16:06:42.304Z,12.40
2019-05-13T16:09:13.689Z,12.30
2019-05-13T16:11:42.439Z,12.00
2019-05-13T16:14:11.793Z,12.30
2019-05-13T16:16:41.684Z,12.80
2019-05-13T16:19:12.295Z,12.90
2019-05-13T16:21:41.723Z,12.80
2019-05-13T16:24:11.927Z,12.60
2019-05-13T16:26:42.730Z,12.80
2019-05-13T16:29:12.606Z,12.60
2019-05-13T16:31:41.757Z,12.80
2019-05-13T16:34:13.503Z,12.50
2019-05-13T16:36:45.698Z,12.80
2019-05-13T16:39:21.309Z,12.90
2019-05-13T16:41:55.400Z,12.60
2019-05-13T16:44:28.196Z,12.70
2019-05-13T16:47:01.492Z,13.10
2019-05-13T16:49:35.323Z,13.10
2019-05-13T16:52:08.008Z,13.60
2019-05-13T16:54:43.286Z,13.50
2019-05-13T16:57:15.890Z,13.90
2019-05-13T16:59:48.866Z,14.00
2019-05-13T17:02:23.020Z,14.90
2019-05-13T17:04:55.738Z,15.50
2019-05-13T17:07:27.371Z,15.40
2019-05-13T17:10:00.148Z,15.30
2019-05-13T17:12:27.184Z,15.70
2019-05-13T17:14:55.974Z,15.80
2019-05-13T17:17:24.670Z,15.80
2019-05-13T17:19:54.095Z,15.50
2019-05-13T17:22:28.390Z,15.50
2019-05-13T17:24:57.555Z,15.80
2019-05-13T17:27:26.368Z,16.70
2019-05-13T17:29:55.255Z,16.80
2019-05-13T17:32:24.145Z,17.10
2019-05-13T17:34:52.934Z,17.70
2019-05-13T17:37:22.136Z,18.20
2019-05-13T17:39:51.052Z,18.20
2019-05-13T17:42:21.512Z,18.90
2019-05-13T17:44:52.243Z,19.40
2019-05-13T17:47:21.893Z,20.00
2019-05-13T17:49:52.128Z,20.30
2019-05-13T17:52:22.131Z,21.00
2019-05-13T17:54:53.383Z,21.40
2019-05-13T17:57:22.270Z,21.70
2019-05-13T17:59:52.122Z,20.80
2019-05-13T18:02:42.051Z,20.90
2019-05-13T18:05:12.135Z,21.20
2019-05-13T18:07:41.943Z,21.30
2019-05-13T18:10:13.725Z,21.10
2019-05-13T18:12:41.831Z,21.60
2019-05-13T18:15:11.506Z,21.10
2019-05-13T18:17:41.804Z,21.40
2019-05-13T18:20:11.370Z,21.40
2019-05-13T18:22:42.018Z,22.00
2019-05-13T18:25:12.102Z,22.40
2019-05-13T18:27:41.710Z,22.70
2019-05-13T18:30:11.507Z,23.10
2019-05-13T18:32:40.630Z,23.70
2019-05-13T18:35:12.063Z,24.40
2019-05-13T18:37:41.944Z,25.00
2019-05-13T18:40:11.708Z,25.90
2019-05-13T18:42:42.229Z,26.50
2019-05-13T18:45:11.565Z,27.40
2019-05-13T18:47:40.530Z,28.10
2019-05-13T18:50:11.631Z,28.40
2019-05-13T18:52:41.973Z,29.30
2019-05-13T18:55:12.440Z,30.00
2019-05-13T18:57:41.929Z,30.00
2019-05-13T19:00:12.184Z,30.50
2019-05-13T19:02:41.463Z,31.60
2019-05-13T19:05:11.961Z,32.90
2019-05-13T19:07:41.866Z,33.80
2019-05-13T19:10:11.523Z,36.30
2019-05-13T19:12:42.018Z,37.30
2019-05-13T19:15:11.498Z,38.00
2019-05-13T19:17:41.565Z,39.30
2019-05-13T19:20:11.621Z,39.60
2019-05-13T19:22:41.321Z,39.80
2019-05-13T19:25:11.861Z,40.60
2019-05-13T19:27:41.428Z,40.40
2019-05-13T19:30:12.088Z,41.50
2019-05-13T19:32:41.812Z,41.80
2019-05-13T19:35:11.827Z,42.30
2019-05-13T19:37:42.609Z,42.10
2019-05-13T19:40:12.938Z,42.60
2019-05-13T19:42:42.129Z,42.20
2019-05-13T19:45:12.456Z,42.30
2019-05-13T19:47:41.953Z,43.10
2019-05-13T19:50:11.207Z,43.10
2019-05-13T19:52:41.435Z,43.70
2019-05-13T19:55:12.018Z,43.90
2019-05-13T19:57:42.564Z,43.90
2019-05-13T20:00:14.117Z,43.30
2019-05-13T20:02:42.963Z,43.00
2019-05-13T20:05:11.798Z,42.90
2019-05-13T20:07:41.957Z,43.10
2019-05-13T20:10:12.022Z,43.10
2019-05-13T20:12:42.005Z,43.80
2019-05-13T20:15:11.790Z,44.30
2019-05-13T20:17:41.762Z,44.20
2019-05-13T20:20:12.340Z,44.30
2019-05-13T20:22:42.118Z,44.50
2019-05-13T20:25:13.053Z,45.20
2019-05-13T20:27:43.459Z,45.30
2019-05-13T20:30:12.665Z,44.90
2019-05-13T20:32:43.310Z,45.60
2019-05-13T20:35:12.469Z,45.20
2019-05-13T20:37:41.274Z,45.60
2019-05-13T20:40:11.593Z,46.50
2019-05-13T20:42:41.523Z,46.70
2019-05-13T20:45:12.723Z,47.20
2019-05-13T20:47:42.036Z,47.20
2019-05-13T20:50:13.731Z,47.80
2019-05-13T20:52:42.603Z,47.80
2019-05-13T20:55:11.911Z,48.30
2019-05-13T20:57:41.752Z,48.70
2019-05-13T21:00:11.428Z,49.30
2019-05-13T21:02:41.647Z,49.10
2019-05-13T21:05:12.078Z,48.80
2019-05-13T21:07:41.777Z,49.30
2019-05-13T21:10:12.159Z,50.10
2019-05-13T21:12:41.993Z,50.30
2019-05-13T21:15:12.830Z,50.30
2019-05-13T21:17:41.519Z,51.00
2019-05-13T21:20:19.699Z,51.40
2019-05-13T21:22:42.375Z,51.70
2019-05-13T21:25:32.191Z,53.10
2019-05-13T21:28:02.114Z,53.50
2019-05-13T21:30:36.607Z,53.90
2019-05-13T21:33:14.123Z,54.10
2019-05-13T21:36:01.771Z,54.40
2019-05-13T21:38:32.480Z,55.50
2019-05-13T21:41:01.545Z,56.00
2019-05-13T21:43:32.414Z,56.20
2019-05-13T21:46:08.368Z,55.90
2019-05-13T21:48:44.690Z,55.60
2019-05-13T21:51:13.720Z,56.60
2019-05-13T21:53:42.630Z,57.70
2019-05-13T21:56:12.174Z,58.30
2019-05-13T21:58:41.654Z,59.10
2019-05-13T22:01:10.820Z,59.00
2019-05-13T22:03:41.496Z,58.70
2019-05-13T22:06:11.132Z,59.00
2019-05-13T22:08:41.745Z,59.80
2019-05-13T22:11:12.065Z,60.00
2019-05-13T22:13:41.926Z,59.90
2019-05-13T22:16:11.021Z,61.10
2019-05-13T22:18:44.128Z,61.70
2019-05-13T22:21:19.582Z,62.20
2019-05-13T22:23:57.558Z,62.30
2019-05-13T22:26:33.564Z,62.50
2019-05-13T22:29:03.224Z,62.00
2019-05-13T22:31:32.806Z,61.50
2019-05-13T22:34:02.653Z,61.80
2019-05-13T22:36:34.161Z,62.80
2019-05-13T22:39:03.775Z,63.20
2019-05-13T22:41:38.749Z,63.70
2019-05-13T22:44:14.112Z,64.00
2019-05-13T22:46:43.192Z,64.00
2019-05-13T22:49:12.375Z,64.10
2019-05-13T22:51:41.645Z,64.60
2019-05-13T22:54:11.942Z,64.60
2019-05-13T22:56:43.125Z,64.20
2019-05-13T22:59:16.738Z,64.30
2019-05-13T23:01:45.634Z,66.10
2019-05-13T23:04:14.630Z,65.50
2019-05-13T23:06:47.149Z,64.90
2019-05-13T23:09:18.241Z,64.40
2019-05-13T23:11:47.031Z,64.50
2019-05-13T23:14:22.017Z,64.70
2019-05-13T23:16:53.294Z,65.30
2019-05-13T23:19:22.103Z,65.70
2019-05-13T23:21:53.894Z,66.10
2019-05-13T23:24:25.748Z,66.10
2019-05-13T23:26:57.105Z,65.80
2019-05-13T23:29:25.854Z,65.80
2019-05-13T23:31:54.614Z,65.30
2019-05-13T23:34:23.401Z,66.40
2019-05-13T23:36:52.088Z,66.30
2019-05-13T23:39:21.603Z,66.30
2019-05-13T23:41:52.219Z,67.00
2019-05-13T23:44:27.011Z,67.20
2019-05-13T23:46:51.648Z,67.10
2019-05-13T23:49:21.067Z,66.40
2019-05-13T23:51:52.022Z,66.60
2019-05-13T23:54:21.327Z,66.30
2019-05-13T23:56:50.528Z,65.40
2019-05-13T23:59:19.298Z,66.10
